sensor_id;sensor_type;location;lat;lon;timestamp;pressure;altitude;pressure_sealevel;temperature;humidity
9525;BME280;15940;48.734;9.112;2022-11-18T00:01:05;94801.47;;;6.53;92.02
9525;BME280;15940;48.734;9.112;2022-11-18T00:03:32;94809.25;;;6.57;92.27
9525;BME280;15940;48.734;9.112;2022-11-18T00:05:59;94802.38;;;6.62;92.69
9525;BME280;15940;48.734;9.112;2022-11-18T00:08:26;94806.56;;;6.57;92.33
9525;BME280;15940;48.734;9.112;2022-11-18T00:10:53;94812.69;;;6.57;92.28
9525;BME280;15940;48.734;9.112;2022-11-18T00:13:20;94802.50;;;6.75;93.52
9525;BME280;15940;48.734;9.112;2022-11-18T00:16:08;94810.91;;;6.66;92.47
9525;BME280;15940;48.734;9.112;2022-11-18T00:18:36;94799.94;;;6.64;92.66
9525;BME280;15940;48.734;9.112;2022-11-18T00:21:05;94810.41;;;6.67;93.15
9525;BME280;15940;48.734;9.112;2022-11-18T00:23:33;94805.97;;;6.70;92.72
9525;BME280;15940;48.734;9.112;2022-11-18T00:26:02;94802.34;;;6.67;92.98
9525;BME280;15940;48.734;9.112;2022-11-18T00:28:29;94808.34;;;6.79;93.67
9525;BME280;15940;48.734;9.112;2022-11-18T00:31:01;94808.00;;;6.88;94.01
9525;BME280;15940;48.734;9.112;2022-11-18T00:33:30;94823.09;;;6.97;93.73
9525;BME280;15940;48.734;9.112;2022-11-18T00:35:58;94823.09;;;6.97;92.92
9525;BME280;15940;48.734;9.112;2022-11-18T00:38:25;94817.03;;;6.91;92.75
9525;BME280;15940;48.734;9.112;2022-11-18T00:40:59;94813.00;;;6.78;92.17
9525;BME280;15940;48.734;9.112;2022-11-18T00:43:26;94822.06;;;6.75;92.47
9525;BME280;15940;48.734;9.112;2022-11-18T00:45:52;94821.59;;;6.71;92.40
9525;BME280;15940;48.734;9.112;2022-11-18T00:48:19;94824.81;;;6.70;92.69
9525;BME280;15940;48.734;9.112;2022-11-18T00:50:49;94815.69;;;6.78;93.60
9525;BME280;15940;48.734;9.112;2022-11-18T00:53:17;94819.81;;;6.79;92.94
9525;BME280;15940;48.734;9.112;2022-11-18T00:55:44;94825.28;;;6.74;92.21
9525;BME280;15940;48.734;9.112;2022-11-18T00:58:11;94812.22;;;6.83;93.50
9525;BME280;15940;48.734;9.112;2022-11-18T01:00:40;94811.63;;;6.91;93.39
9525;BME280;15940;48.734;9.112;2022-11-18T01:03:08;94816.06;;;6.88;92.65
9525;BME280;15940;48.734;9.112;2022-11-18T01:05:35;94814.91;;;6.83;92.88
9525;BME280;15940;48.734;9.112;2022-11-18T01:08:06;94807.41;;;6.71;92.60
9525;BME280;15940;48.734;9.112;2022-11-18T01:10:35;94814.63;;;6.87;93.67
9525;BME280;15940;48.734;9.112;2022-11-18T01:13:03;94814.50;;;6.98;93.33
9525;BME280;15940;48.734;9.112;2022-11-18T01:15:46;94805.03;;;6.92;92.88
9525;BME280;15940;48.734;9.112;2022-11-18T01:18:14;94817.72;;;6.97;93.04
9525;BME280;15940;48.734;9.112;2022-11-18T01:20:41;94819.78;;;7.09;94.04
9525;BME280;15940;48.734;9.112;2022-11-18T01:23:10;94826.50;;;6.97;92.56
9525;BME280;15940;48.734;9.112;2022-11-18T01:25:40;94821.59;;;7.01;93.47
9525;BME280;15940;48.734;9.112;2022-11-18T01:28:08;94823.47;;;7.06;93.20
9525;BME280;15940;48.734;9.112;2022-11-18T01:30:37;94814.97;;;7.02;92.74
9525;BME280;15940;48.734;9.112;2022-11-18T01:33:05;94822.25;;;7.07;92.57
9525;BME280;15940;48.734;9.112;2022-11-18T01:35:34;94820.09;;;7.00;92.42
9525;BME280;15940;48.734;9.112;2022-11-18T01:38:01;94829.66;;;7.01;92.79
9525;BME280;15940;48.734;9.112;2022-11-18T01:40:30;94824.53;;;6.98;92.27
9525;BME280;15940;48.734;9.112;2022-11-18T01:42:58;94841.16;;;7.02;92.93
9525;BME280;15940;48.734;9.112;2022-11-18T01:45:30;94844.28;;;7.06;93.25
9525;BME280;15940;48.734;9.112;2022-11-18T01:48:03;94844.50;;;7.08;92.79
9525;BME280;15940;48.734;9.112;2022-11-18T01:50:34;94839.84;;;7.08;92.89
9525;BME280;15940;48.734;9.112;2022-11-18T01:53:06;94853.06;;;7.12;93.00
9525;BME280;15940;48.734;9.112;2022-11-18T01:55:37;94850.06;;;7.15;92.82
9525;BME280;15940;48.734;9.112;2022-11-18T01:58:21;94856.56;;;7.26;93.56
9525;BME280;15940;48.734;9.112;2022-11-18T02:00:49;94860.06;;;7.21;92.70
9525;BME280;15940;48.734;9.112;2022-11-18T02:03:16;94857.63;;;7.17;92.77
9525;BME280;15940;48.734;9.112;2022-11-18T02:05:46;94866.94;;;7.16;92.77
9525;BME280;15940;48.734;9.112;2022-11-18T02:08:13;94871.31;;;7.19;93.46
9525;BME280;15940;48.734;9.112;2022-11-18T02:10:42;94870.31;;;7.22;93.10
9525;BME280;15940;48.734;9.112;2022-11-18T02:13:10;94870.84;;;7.21;92.66
9525;BME280;15940;48.734;9.112;2022-11-18T02:15:47;94873.97;;;7.25;92.68
9525;BME280;15940;48.734;9.112;2022-11-18T02:18:34;94875.19;;;7.24;92.73
9525;BME280;15940;48.734;9.112;2022-11-18T02:21:16;94869.13;;;7.18;92.54
9525;BME280;15940;48.734;9.112;2022-11-18T02:24:23;94877.31;;;7.06;92.67
9525;BME280;15940;48.734;9.112;2022-11-18T02:27:57;94876.22;;;7.21;93.60
9525;BME280;15940;48.734;9.112;2022-11-18T02:30:37;94867.47;;;7.14;93.06
9525;BME280;15940;48.734;9.112;2022-11-18T02:33:10;94877.00;;;7.15;92.50
9525;BME280;15940;48.734;9.112;2022-11-18T02:35:41;94874.81;;;7.14;93.25
9525;BME280;15940;48.734;9.112;2022-11-18T02:38:12;94877.72;;;7.16;93.10
9525;BME280;15940;48.734;9.112;2022-11-18T02:40:43;94885.63;;;7.08;92.70
9525;BME280;15940;48.734;9.112;2022-11-18T02:43:15;94869.19;;;7.12;92.94
9525;BME280;15940;48.734;9.112;2022-11-18T02:45:49;94881.44;;;7.13;92.94
9525;BME280;15940;48.734;9.112;2022-11-18T02:48:19;94876.25;;;7.15;93.31
9525;BME280;15940;48.734;9.112;2022-11-18T02:50:49;94876.94;;;7.21;93.60
9525;BME280;15940;48.734;9.112;2022-11-18T02:53:19;94869.09;;;7.23;93.55
9525;BME280;15940;48.734;9.112;2022-11-18T02:55:47;94875.75;;;7.16;93.32
9525;BME280;15940;48.734;9.112;2022-11-18T02:58:18;94875.50;;;7.20;93.51
9525;BME280;15940;48.734;9.112;2022-11-18T03:00:54;94889.44;;;7.19;93.25
9525;BME280;15940;48.734;9.112;2022-11-18T03:03:26;94889.09;;;7.28;93.87
9525;BME280;15940;48.734;9.112;2022-11-18T03:06:03;94898.94;;;7.25;93.04
9525;BME280;15940;48.734;9.112;2022-11-18T03:08:38;94903.88;;;7.21;93.34
9525;BME280;15940;48.734;9.112;2022-11-18T03:11:13;94902.16;;;7.18;93.52
9525;BME280;15940;48.734;9.112;2022-11-18T03:13:59;94904.81;;;7.24;93.35
9525;BME280;15940;48.734;9.112;2022-11-18T03:16:34;94915.09;;;7.25;93.71
9525;BME280;15940;48.734;9.112;2022-11-18T03:19:08;94914.88;;;7.23;93.30
9525;BME280;15940;48.734;9.112;2022-11-18T03:21:42;94913.84;;;7.26;93.27
9525;BME280;15940;48.734;9.112;2022-11-18T03:24:16;94910.94;;;7.24;93.04
9525;BME280;15940;48.734;9.112;2022-11-18T03:26:51;94915.25;;;7.33;93.98
9525;BME280;15940;48.734;9.112;2022-11-18T03:29:24;94929.28;;;7.26;93.08
9525;BME280;15940;48.734;9.112;2022-11-18T03:31:57;94930.94;;;7.29;93.74
9525;BME280;15940;48.734;9.112;2022-11-18T03:34:29;94936.41;;;7.23;92.67
9525;BME280;15940;48.734;9.112;2022-11-18T03:37:01;94943.03;;;7.22;93.28
9525;BME280;15940;48.734;9.112;2022-11-18T03:39:31;94948.41;;;7.22;93.32
9525;BME280;15940;48.734;9.112;2022-11-18T03:42:07;94954.06;;;7.19;93.25
9525;BME280;15940;48.734;9.112;2022-11-18T03:44:38;94951.88;;;7.17;93.36
9525;BME280;15940;48.734;9.112;2022-11-18T03:47:15;94963.38;;;7.18;93.45
9525;BME280;15940;48.734;9.112;2022-11-18T03:49:46;94949.19;;;7.17;93.77
9525;BME280;15940;48.734;9.112;2022-11-18T03:52:19;94968.31;;;7.13;93.24
9525;BME280;15940;48.734;9.112;2022-11-18T03:54:51;94963.88;;;7.16;94.19
9525;BME280;15940;48.734;9.112;2022-11-18T03:57:22;94967.50;;;7.19;93.93
9525;BME280;15940;48.734;9.112;2022-11-18T03:59:55;94973.47;;;7.11;93.89
9525;BME280;15940;48.734;9.112;2022-11-18T04:02:27;94975.38;;;7.16;94.33
9525;BME280;15940;48.734;9.112;2022-11-18T04:04:57;94969.25;;;7.16;93.90
9525;BME280;15940;48.734;9.112;2022-11-18T04:07:31;94979.31;;;7.10;93.92
9525;BME280;15940;48.734;9.112;2022-11-18T04:10:05;94978.84;;;7.11;94.17
9525;BME280;15940;48.734;9.112;2022-11-18T04:12:41;94977.94;;;7.03;93.05
9525;BME280;15940;48.734;9.112;2022-11-18T04:15:10;94983.13;;;6.96;93.55
9525;BME280;15940;48.734;9.112;2022-11-18T04:17:40;94990.78;;;6.86;92.82
9525;BME280;15940;48.734;9.112;2022-11-18T04:20:13;94991.78;;;6.83;92.76
9525;BME280;15940;48.734;9.112;2022-11-18T04:22:43;94988.53;;;6.90;93.95
9525;BME280;15940;48.734;9.112;2022-11-18T04:25:10;94999.47;;;6.62;91.34
9525;BME280;15940;48.734;9.112;2022-11-18T04:27:37;95000.66;;;6.67;93.20
9525;BME280;15940;48.734;9.112;2022-11-18T04:30:06;94990.22;;;6.57;92.32
9525;BME280;15940;48.734;9.112;2022-11-18T04:32:33;95001.97;;;6.54;92.33
9525;BME280;15940;48.734;9.112;2022-11-18T04:35:03;95005.69;;;6.46;92.36
9525;BME280;15940;48.734;9.112;2022-11-18T04:37:30;95007.16;;;6.41;92.62
9525;BME280;15940;48.734;9.112;2022-11-18T04:39:57;95007.66;;;6.40;92.13
9525;BME280;15940;48.734;9.112;2022-11-18T04:42:24;95006.94;;;6.34;92.49
9525;BME280;15940;48.734;9.112;2022-11-18T04:44:51;95004.00;;;6.37;93.10
9525;BME280;15940;48.734;9.112;2022-11-18T04:47:18;95014.72;;;6.43;92.76
9525;BME280;15940;48.734;9.112;2022-11-18T04:49:45;95007.66;;;6.40;92.56
9525;BME280;15940;48.734;9.112;2022-11-18T04:52:13;95012.75;;;6.49;93.80
9525;BME280;15940;48.734;9.112;2022-11-18T04:54:40;95012.03;;;6.43;93.00
9525;BME280;15940;48.734;9.112;2022-11-18T04:57:07;95014.47;;;6.46;92.95
9525;BME280;15940;48.734;9.112;2022-11-18T04:59:35;95015.38;;;6.60;93.71
9525;BME280;15940;48.734;9.112;2022-11-18T05:02:02;95019.50;;;6.67;93.49
9525;BME280;15940;48.734;9.112;2022-11-18T05:04:31;95019.72;;;6.69;93.99
9525;BME280;15940;48.734;9.112;2022-11-18T05:07:00;95026.41;;;6.51;92.33
9525;BME280;15940;48.734;9.112;2022-11-18T05:09:29;95023.22;;;6.52;93.53
9525;BME280;15940;48.734;9.112;2022-11-18T05:11:56;95029.09;;;6.51;92.75
9525;BME280;15940;48.734;9.112;2022-11-18T05:14:40;95032.78;;;6.48;92.61
9525;BME280;15940;48.734;9.112;2022-11-18T05:17:08;95028.88;;;6.54;93.53
9525;BME280;15940;48.734;9.112;2022-11-18T05:19:36;95032.28;;;6.55;93.63
9525;BME280;15940;48.734;9.112;2022-11-18T05:22:03;95036.69;;;6.52;92.67
9525;BME280;15940;48.734;9.112;2022-11-18T05:24:32;95033.25;;;6.52;92.75
9525;BME280;15940;48.734;9.112;2022-11-18T05:26:59;95040.88;;;6.42;92.96
9525;BME280;15940;48.734;9.112;2022-11-18T05:29:26;95043.28;;;6.57;93.45
9525;BME280;15940;48.734;9.112;2022-11-18T05:31:53;95032.00;;;6.58;92.45
9525;BME280;15940;48.734;9.112;2022-11-18T05:34:20;95034.25;;;6.49;92.69
9525;BME280;15940;48.734;9.112;2022-11-18T05:36:47;95040.59;;;6.51;92.86
9525;BME280;15940;48.734;9.112;2022-11-18T05:39:14;95043.50;;;6.53;92.88
9525;BME280;15940;48.734;9.112;2022-11-18T05:41:42;95049.16;;;6.50;92.46
9525;BME280;15940;48.734;9.112;2022-11-18T05:44:27;95061.66;;;6.47;93.06
9525;BME280;15940;48.734;9.112;2022-11-18T05:46:54;95061.66;;;6.47;92.78
9525;BME280;15940;48.734;9.112;2022-11-18T05:49:21;95047.97;;;6.45;93.24
9525;BME280;15940;48.734;9.112;2022-11-18T05:51:48;95055.06;;;6.43;93.00
9525;BME280;15940;48.734;9.112;2022-11-18T05:54:18;95055.31;;;6.45;92.84
9525;BME280;15940;48.734;9.112;2022-11-18T05:56:46;95056.56;;;6.33;92.05
9525;BME280;15940;48.734;9.112;2022-11-18T05:59:14;95057.56;;;6.24;92.59
9525;BME280;15940;48.734;9.112;2022-11-18T06:01:45;95051.44;;;6.29;93.12
9525;BME280;15940;48.734;9.112;2022-11-18T06:04:16;95059.06;;;6.19;91.86
9525;BME280;15940;48.734;9.112;2022-11-18T06:06:45;95063.19;;;6.20;92.61
9525;BME280;15940;48.734;9.112;2022-11-18T06:09:17;95062.94;;;6.24;91.84
9525;BME280;15940;48.734;9.112;2022-11-18T06:11:50;95061.50;;;6.17;93.35
9525;BME280;15940;48.734;9.112;2022-11-18T06:14:21;95065.63;;;6.29;93.13
9525;BME280;15940;48.734;9.112;2022-11-18T06:16:53;95069.81;;;6.19;92.57
9525;BME280;15940;48.734;9.112;2022-11-18T06:19:22;95070.78;;;6.22;92.52
9525;BME280;15940;48.734;9.112;2022-11-18T06:21:49;95082.75;;;6.26;93.15
9525;BME280;15940;48.734;9.112;2022-11-18T06:24:16;95084.22;;;6.22;92.74
9525;BME280;15940;48.734;9.112;2022-11-18T06:26:46;95079.28;;;6.32;93.42
9525;BME280;15940;48.734;9.112;2022-11-18T06:29:14;95089.06;;;6.35;93.32
9525;BME280;15940;48.734;9.112;2022-11-18T06:31:42;95088.06;;;6.43;93.27
9525;BME280;15940;48.734;9.112;2022-11-18T06:34:09;95098.13;;;6.32;91.18
9525;BME280;15940;48.734;9.112;2022-11-18T06:36:36;95093.69;;;6.40;92.61
9525;BME280;15940;48.734;9.112;2022-11-18T06:39:04;95093.19;;;6.41;92.21
9525;BME280;15940;48.734;9.112;2022-11-18T06:41:32;95104.69;;;6.42;91.41
9525;BME280;15940;48.734;9.112;2022-11-18T06:44:00;95102.50;;;6.46;92.49
9525;BME280;15940;48.734;9.112;2022-11-18T06:46:26;95105.66;;;6.50;92.44
9525;BME280;15940;48.734;9.112;2022-11-18T06:49:11;95108.56;;;6.57;92.98
9525;BME280;15940;48.734;9.112;2022-11-18T06:51:38;95109.78;;;6.56;91.68
9525;BME280;15940;48.734;9.112;2022-11-18T06:54:05;95116.16;;;6.48;91.71
9525;BME280;15940;48.734;9.112;2022-11-18T06:56:34;95112.47;;;6.51;92.15
9525;BME280;15940;48.734;9.112;2022-11-18T06:59:02;95118.63;;;6.46;90.71
9525;BME280;15940;48.734;9.112;2022-11-18T07:01:33;95120.84;;;6.30;90.60
9525;BME280;15940;48.734;9.112;2022-11-18T07:04:01;95127.47;;;6.35;91.19
9525;BME280;15940;48.734;9.112;2022-11-18T07:06:30;95131.34;;;6.34;90.79
9525;BME280;15940;48.734;9.112;2022-11-18T07:08:59;95126.97;;;6.37;91.57
9525;BME280;15940;48.734;9.112;2022-11-18T07:11:27;95133.31;;;6.39;91.76
9525;BME280;15940;48.734;9.112;2022-11-18T07:13:55;95133.31;;;6.39;91.33
9525;BME280;15940;48.734;9.112;2022-11-18T07:16:25;95147.22;;;6.43;91.11
9525;BME280;15940;48.734;9.112;2022-11-18T07:18:54;95152.84;;;6.34;90.32
9525;BME280;15940;48.734;9.112;2022-11-18T07:21:23;95142.09;;;6.34;91.03
9525;BME280;15940;48.734;9.112;2022-11-18T07:23:51;95148.47;;;6.37;90.54
9525;BME280;15940;48.734;9.112;2022-11-18T07:26:18;95157.03;;;6.35;90.28
9525;BME280;15940;48.734;9.112;2022-11-18T07:28:45;95150.44;;;6.36;91.15
9525;BME280;15940;48.734;9.112;2022-11-18T07:31:15;95158.69;;;6.49;92.06
9525;BME280;15940;48.734;9.112;2022-11-18T07:33:45;95162.84;;;6.56;91.06
9525;BME280;15940;48.734;9.112;2022-11-18T07:36:14;95157.72;;;6.58;91.43
9525;BME280;15940;48.734;9.112;2022-11-18T07:38:42;95171.38;;;6.66;91.90
9525;BME280;15940;48.734;9.112;2022-11-18T07:41:12;95175.53;;;6.67;91.24
9525;BME280;15940;48.734;9.112;2022-11-18T07:43:40;95179.69;;;6.73;91.35
9525;BME280;15940;48.734;9.112;2022-11-18T07:46:12;95180.69;;;6.65;90.46
9525;BME280;15940;48.734;9.112;2022-11-18T07:48:40;95182.38;;;6.68;91.09
9525;BME280;15940;48.734;9.112;2022-11-18T07:51:09;95186.72;;;6.82;91.52
9525;BME280;15940;48.734;9.112;2022-11-18T07:53:36;95189.41;;;6.82;91.14
9525;BME280;15940;48.734;9.112;2022-11-18T07:56:05;95187.47;;;6.82;90.83
9525;BME280;15940;48.734;9.112;2022-11-18T07:58:33;95192.88;;;6.82;90.81
9525;BME280;15940;48.734;9.112;2022-11-18T08:01:07;95185.03;;;6.84;90.74
9525;BME280;15940;48.734;9.112;2022-11-18T08:03:34;95191.63;;;6.83;89.69
9525;BME280;15940;48.734;9.112;2022-11-18T08:06:03;95197.25;;;6.85;91.11
9525;BME280;15940;48.734;9.112;2022-11-18T08:08:32;95192.63;;;6.75;89.94
9525;BME280;15940;48.734;9.112;2022-11-18T08:11:01;95197.03;;;6.72;89.21
9525;BME280;15940;48.734;9.112;2022-11-18T08:13:29;95198.06;;;6.64;89.78
9525;BME280;15940;48.734;9.112;2022-11-18T08:15:56;95205.59;;;6.71;91.08
9525;BME280;15940;48.734;9.112;2022-11-18T08:18:24;95219.78;;;6.77;89.87
9525;BME280;15940;48.734;9.112;2022-11-18T08:20:51;95226.84;;;6.80;90.53
9525;BME280;15940;48.734;9.112;2022-11-18T08:23:18;95230.78;;;6.79;90.46
9525;BME280;15940;48.734;9.112;2022-11-18T08:25:47;95220.00;;;6.84;91.29
9525;BME280;15940;48.734;9.112;2022-11-18T08:28:14;95230.03;;;6.84;90.65
9525;BME280;15940;48.734;9.112;2022-11-18T08:30:41;95234.91;;;6.91;90.45
9525;BME280;15940;48.734;9.112;2022-11-18T08:33:08;95233.44;;;7.01;90.93
9525;BME280;15940;48.734;9.112;2022-11-18T08:35:35;95237.59;;;6.97;89.66
9525;BME280;15940;48.734;9.112;2022-11-18T08:38:02;95248.63;;;6.87;89.75
9525;BME280;15940;48.734;9.112;2022-11-18T08:40:29;95246.94;;;6.84;90.32
9525;BME280;15940;48.734;9.112;2022-11-18T08:42:58;95250.31;;;6.96;91.13
9525;BME280;15940;48.734;9.112;2022-11-18T08:45:25;95249.56;;;7.01;90.91
9525;BME280;15940;48.734;9.112;2022-11-18T08:47:52;95252.72;;;7.05;90.60
9525;BME280;15940;48.734;9.112;2022-11-18T08:50:20;95252.22;;;7.07;90.26
9525;BME280;15940;48.734;9.112;2022-11-18T08:52:47;95255.38;;;7.16;90.97
9525;BME280;15940;48.734;9.112;2022-11-18T08:55:14;95255.59;;;7.24;91.29
9525;BME280;15940;48.734;9.112;2022-11-18T08:57:41;95261.50;;;7.17;89.16
9525;BME280;15940;48.734;9.112;2022-11-18T09:00:12;95268.63;;;7.14;89.62
9525;BME280;15940;48.734;9.112;2022-11-18T09:02:39;95270.03;;;7.32;91.35
9525;BME280;15940;48.734;9.112;2022-11-18T09:05:07;95273.41;;;7.38;90.86
9525;BME280;15940;48.734;9.112;2022-11-18T09:07:34;95267.50;;;7.45;90.41
9525;BME280;15940;48.734;9.112;2022-11-18T09:10:01;95273.13;;;7.53;89.92
9525;BME280;15940;48.734;9.112;2022-11-18T09:12:28;95271.63;;;7.58;90.13
9525;BME280;15940;48.734;9.112;2022-11-18T09:14:55;95274.75;;;7.67;90.07
9525;BME280;15940;48.734;9.112;2022-11-18T09:17:23;95278.94;;;7.68;90.22
9525;BME280;15940;48.734;9.112;2022-11-18T09:19:50;95281.34;;;7.72;89.80
9525;BME280;15940;48.734;9.112;2022-11-18T09:22:17;95288.69;;;7.77;90.36
9525;BME280;15940;48.734;9.112;2022-11-18T09:24:44;95280.06;;;7.84;89.30
9525;BME280;15940;48.734;9.112;2022-11-18T09:27:11;95286.69;;;7.83;89.75
9525;BME280;15940;48.734;9.112;2022-11-18T09:29:38;95290.59;;;7.82;89.30
9525;BME280;15940;48.734;9.112;2022-11-18T09:32:05;95284.50;;;7.82;89.35
9525;BME280;15940;48.734;9.112;2022-11-18T09:34:34;95285.50;;;7.79;89.35
9525;BME280;15940;48.734;9.112;2022-11-18T09:37:02;95290.16;;;7.72;89.43
9525;BME280;15940;48.734;9.112;2022-11-18T09:39:33;95287.47;;;7.72;89.80
9525;BME280;15940;48.734;9.112;2022-11-18T09:42:28;95286.00;;;7.77;89.20
9525;BME280;15940;48.734;9.112;2022-11-18T09:45:13;95286.91;;;7.85;89.43
9525;BME280;15940;48.734;9.112;2022-11-18T09:47:43;95296.84;;;8.07;89.79
9525;BME280;15940;48.734;9.112;2022-11-18T09:50:15;95292.03;;;8.36;89.01
9525;BME280;15940;48.734;9.112;2022-11-18T09:53:00;95297.97;;;8.58;88.28
9525;BME280;15940;48.734;9.112;2022-11-18T09:55:30;95299.25;;;8.82;87.51
9525;BME280;15940;48.734;9.112;2022-11-18T09:57:59;95306.03;;;8.88;86.65
9525;BME280;15940;48.734;9.112;2022-11-18T10:00:28;95302.00;;;8.76;86.22
9525;BME280;15940;48.734;9.112;2022-11-18T10:03:00;95294.50;;;8.64;86.79
9525;BME280;15940;48.734;9.112;2022-11-18T10:05:32;95301.69;;;8.55;87.18
9525;BME280;15940;48.734;9.112;2022-11-18T10:08:11;95308.75;;;8.58;88.22
9525;BME280;15940;48.734;9.112;2022-11-18T10:10:49;95309.31;;;8.51;86.34
9525;BME280;15940;48.734;9.112;2022-11-18T10:13:31;95321.72;;;8.66;87.97
9525;BME280;15940;48.734;9.112;2022-11-18T10:16:13;95315.59;;;8.65;87.75
9525;BME280;15940;48.734;9.112;2022-11-18T10:18:52;95321.53;;;8.58;86.25
9525;BME280;15940;48.734;9.112;2022-11-18T10:21:37;95324.88;;;8.34;86.88
9525;BME280;15940;48.734;9.112;2022-11-18T10:24:14;95325.84;;;8.31;87.10
9525;BME280;15940;48.734;9.112;2022-11-18T10:26:43;95335.41;;;8.38;88.86
9525;BME280;15940;48.734;9.112;2022-11-18T10:29:10;95336.03;;;8.55;89.27
9525;BME280;15940;48.734;9.112;2022-11-18T10:31:38;95333.25;;;8.66;88.88
9525;BME280;15940;48.734;9.112;2022-11-18T10:34:09;95335.63;;;8.75;89.03
9525;BME280;15940;48.734;9.112;2022-11-18T10:36:38;95333.22;;;8.72;87.70
9525;BME280;15940;48.734;9.112;2022-11-18T10:39:12;95328.38;;;8.59;88.56
9525;BME280;15940;48.734;9.112;2022-11-18T10:41:45;95333.94;;;8.72;89.03
9525;BME280;15940;48.734;9.112;2022-11-18T10:44:33;95344.84;;;8.91;88.42
9525;BME280;15940;48.734;9.112;2022-11-18T10:47:29;95331.09;;;8.89;86.00
9525;BME280;15940;48.734;9.112;2022-11-18T10:49:58;95342.03;;;9.02;87.51
9525;BME280;15940;48.734;9.112;2022-11-18T10:52:28;95336.41;;;9.00;84.26
9525;BME280;15940;48.734;9.112;2022-11-18T10:55:21;95340.28;;;9.05;87.25
9525;BME280;15940;48.734;9.112;2022-11-18T10:57:59;95349.34;;;9.07;87.29
9525;BME280;15940;48.734;9.112;2022-11-18T11:00:50;95338.31;;;9.05;86.89
9525;BME280;15940;48.734;9.112;2022-11-18T11:03:33;95343.41;;;9.09;84.68
9525;BME280;15940;48.734;9.112;2022-11-18T11:06:40;95352.94;;;9.15;85.84
9525;BME280;15940;48.734;9.112;2022-11-18T11:09:25;95348.41;;;9.29;85.11
9525;BME280;15940;48.734;9.112;2022-11-18T11:11:59;95348.66;;;9.26;86.01
9525;BME280;15940;48.734;9.112;2022-11-18T11:14:31;95347.88;;;9.06;84.29
9525;BME280;15940;48.734;9.112;2022-11-18T11:17:08;95344.66;;;9.08;85.27
9525;BME280;15940;48.734;9.112;2022-11-18T11:19:46;95348.56;;;9.12;84.67
9525;BME280;15940;48.734;9.112;2022-11-18T11:22:16;95352.25;;;9.09;84.74
9525;BME280;15940;48.734;9.112;2022-11-18T11:24:45;95354.47;;;9.11;86.62
9525;BME280;15940;48.734;9.112;2022-11-18T11:27:38;95359.13;;;8.80;87.72
9525;BME280;15940;48.734;9.112;2022-11-18T11:30:15;95356.91;;;8.54;86.25
9525;BME280;15940;48.734;9.112;2022-11-18T11:33:21;95355.75;;;8.33;85.88
9525;BME280;15940;48.734;9.112;2022-11-18T11:36:03;95360.41;;;8.44;87.51
9525;BME280;15940;48.734;9.112;2022-11-18T11:38:46;95362.09;;;8.47;86.33
9525;BME280;15940;48.734;9.112;2022-11-18T11:41:22;95361.59;;;8.48;86.94
9525;BME280;15940;48.734;9.112;2022-11-18T11:44:11;95361.88;;;8.34;86.97
9525;BME280;15940;48.734;9.112;2022-11-18T11:46:53;95366.69;;;8.11;86.66
9525;BME280;15940;48.734;9.112;2022-11-18T11:49:51;95382.81;;;8.22;89.02
9525;BME280;15940;48.734;9.112;2022-11-18T11:52:31;95385.56;;;8.05;89.25
9525;BME280;15940;48.734;9.112;2022-11-18T11:55:13;95378.88;;;8.23;89.39
9525;BME280;15940;48.734;9.112;2022-11-18T11:57:58;95383.50;;;8.28;89.25
9525;BME280;15940;48.734;9.112;2022-11-18T12:00:36;95386.97;;;8.23;88.51
9525;BME280;15940;48.734;9.112;2022-11-18T12:03:17;95377.84;;;8.37;89.78
9525;BME280;15940;48.734;9.112;2022-11-18T12:05:50;95376.59;;;8.32;89.33
9525;BME280;15940;48.734;9.112;2022-11-18T12:08:22;95379.16;;;8.19;87.49
9525;BME280;15940;48.734;9.112;2022-11-18T12:10:53;95379.09;;;8.30;89.16
9525;BME280;15940;48.734;9.112;2022-11-18T12:13:33;95388.94;;;8.22;88.37
9525;BME280;15940;48.734;9.112;2022-11-18T12:16:19;95390.25;;;8.05;88.87
9525;BME280;15940;48.734;9.112;2022-11-18T12:18:56;95386.91;;;7.82;87.95
9525;BME280;15940;48.734;9.112;2022-11-18T12:21:58;95393.09;;;7.65;90.34
9525;BME280;15940;48.734;9.112;2022-11-18T12:24:33;95388.97;;;7.53;88.57
9525;BME280;15940;48.734;9.112;2022-11-18T12:27:12;95391.19;;;7.49;89.23
9525;BME280;15940;48.734;9.112;2022-11-18T12:29:54;95395.59;;;7.52;90.10
9525;BME280;15940;48.734;9.112;2022-11-18T12:32:33;95396.06;;;7.56;90.35
9525;BME280;15940;48.734;9.112;2022-11-18T12:35:25;95392.63;;;7.61;89.71
9525;BME280;15940;48.734;9.112;2022-11-18T12:37:59;95401.69;;;7.64;90.10
9525;BME280;15940;48.734;9.112;2022-11-18T12:40:38;95395.56;;;7.58;90.02
9525;BME280;15940;48.734;9.112;2022-11-18T12:46:58;95401.91;;;7.77;90.93
9525;BME280;15940;48.734;9.112;2022-11-18T12:50:09;95404.03;;;7.90;90.93
9525;BME280;15940;48.734;9.112;2022-11-18T12:52:53;95394.44;;;8.06;90.11
9525;BME280;15940;48.734;9.112;2022-11-18T12:55:32;95393.44;;;8.03;89.03
9525;BME280;15940;48.734;9.112;2022-11-18T12:57:59;95396.28;;;8.22;89.73
9525;BME280;15940;48.734;9.112;2022-11-18T13:00:32;95402.13;;;8.31;87.82
9525;BME280;15940;48.734;9.112;2022-11-18T13:03:25;95394.75;;;8.32;89.48
9525;BME280;15940;48.734;9.112;2022-11-18T13:06:22;95404.59;;;8.35;87.84
9525;BME280;15940;48.734;9.112;2022-11-18T13:08:52;95403.41;;;8.25;86.55
9525;BME280;15940;48.734;9.112;2022-11-18T13:11:20;95395.50;;;8.32;88.32
9525;BME280;15940;48.734;9.112;2022-11-18T13:14:13;95399.19;;;8.29;86.15
9525;BME280;15940;48.734;9.112;2022-11-18T13:16:58;95397.47;;;8.32;87.97
9525;BME280;15940;48.734;9.112;2022-11-18T13:19:54;95396.78;;;8.20;87.07
9525;BME280;15940;48.734;9.112;2022-11-18T13:22:22;95406.63;;;8.12;86.56
9525;BME280;15940;48.734;9.112;2022-11-18T13:25:22;95400.56;;;8.06;87.28
9525;BME280;15940;48.734;9.112;2022-11-18T13:27:57;95409.66;;;7.92;87.25
9525;BME280;15940;48.734;9.112;2022-11-18T13:30:29;95416.81;;;7.84;87.19
9525;BME280;15940;48.734;9.112;2022-11-18T13:32:58;95420.47;;;7.86;88.36
9525;BME280;15940;48.734;9.112;2022-11-18T13:35:27;95409.41;;;7.95;88.72
9525;BME280;15940;48.734;9.112;2022-11-18T13:37:56;95405.44;;;8.08;87.04
9525;BME280;15940;48.734;9.112;2022-11-18T13:40:27;95406.88;;;8.14;86.05
9525;BME280;15940;48.734;9.112;2022-11-18T13:42:56;95406.56;;;8.29;83.97
9525;BME280;15940;48.734;9.112;2022-11-18T13:45:26;95405.63;;;8.21;83.49
9525;BME280;15940;48.734;9.112;2022-11-18T13:47:58;95409.72;;;8.39;86.08
9525;BME280;15940;48.734;9.112;2022-11-18T13:50:32;95414.06;;;8.53;83.22
9525;BME280;15940;48.734;9.112;2022-11-18T13:53:12;95418.75;;;8.47;83.73
9525;BME280;15940;48.734;9.112;2022-11-18T13:55:44;95416.91;;;8.66;85.71